Santa Carmem, Brazil
Current Conditions -  °F | °C
As of 11:00 AM on Sunday 25 Jan 2015 (Local Time) from SBCY Reporting Station
Few Clouds Few Clouds  
Wind Chill: 82°   Ceiling: Unl
Heat Index: 86°   Visibility: 6mi
Dew Point: 70°   Wind: 13mph
Humidity: 66%   Direction: 350°N
Pressure: 29.94"   Gusts: NA
Location:  11.91°S, 55.23°W
Report Text: SBCY 251400Z 35011KT 9999 FEW015 28/21 Q1014
Loading
Personal Weather Stations






























Interactive Weather Map New forecast layout! Learn more

10-Day Weather Forecast

Advertisements
Track Severe Weather on mobile